Time;durP1;ratioP1;P1;durP2;ratioP2;P2;SDS_P1;SDS_P2;PMS_P1;PMS_P2;Temp;Humidity;BMP_temperature;BMP_pressure;BME280_temperature;BME280_humidity;BME280_pressure;Samples;Min_cycle;Max_cycle;Signal;HPM_P1;HPM_P2
2023/06/21 00:00:16;;;;;;;10.93;9.90;;;30.30;48.20;;;;;;5028423;28;20197;-47
2023/06/21 00:02:45;;;;;;;12.33;8.93;;;30.40;48.50;;;;;;5016102;28;20443;-47
2023/06/21 00:05:11;;;;;;;10.47;9.50;;;30.30;48.40;;;;;;5017998;28;20444;-46
2023/06/21 00:07:40;;;;;;;10.47;9.27;;;30.20;48.30;;;;;;5012004;28;20939;-48
2023/06/21 00:10:07;;;;;;;10.63;9.63;;;30.20;48.40;;;;;;5015510;28;20284;-49
2023/06/21 00:12:33;;;;;;;10.47;9.47;;;30.20;48.40;;;;;;5017373;28;20520;-47
2023/06/21 00:14:59;;;;;;;11.33;10.23;;;30.10;48.30;;;;;;5021168;28;20510;-49
2023/06/21 00:17:25;;;;;;;11.03;8.60;;;30.20;48.70;;;;;;5019072;28;20194;-48
2023/06/21 00:19:53;;;;;;;12.30;9.37;;;30.20;48.50;;;;;;5016438;28;20951;-50
2023/06/21 00:22:21;;;;;;;9.23;8.27;;;30.10;48.40;;;;;;5028602;28;20686;-47
2023/06/21 00:24:48;;;;;;;10.20;8.43;;;30.10;48.50;;;;;;5028212;28;20471;-48
2023/06/21 00:27:14;;;;;;;10.57;9.47;;;30.10;48.50;;;;;;5020543;28;20448;-47
2023/06/21 00:29:39;;;;;;;9.47;8.57;;;30.10;48.50;;;;;;5021213;28;20808;-47
2023/06/21 00:32:05;;;;;;;11.93;8.90;;;30.10;48.40;;;;;;5014814;28;20229;-47
2023/06/21 00:34:31;;;;;;;10.03;8.93;;;30.00;48.40;;;;;;5024717;28;20283;-51
2023/06/21 00:36:56;;;;;;;10.60;9.60;;;30.00;48.40;;;;;;5023898;28;20196;-50
2023/06/21 00:39:22;;;;;;;10.20;9.13;;;30.00;48.40;;;;;;5017022;28;20193;-46
2023/06/21 00:41:48;;;;;;;8.70;7.90;;;30.00;48.70;;;;;;5015948;28;21051;-49
2023/06/21 00:44:13;;;;;;;10.00;9.00;;;30.00;48.80;;;;;;5015652;28;20582;-47
2023/06/21 00:46:40;;;;;;;11.80;9.10;;;29.90;48.70;;;;;;5005882;28;20665;-46
2023/06/21 00:49:05;;;;;;;10.80;9.70;;;30.00;48.80;;;;;;5025987;28;20731;-47
2023/06/21 00:51:32;;;;;;;11.20;9.90;;;29.90;48.80;;;;;;5027127;28;20498;-48
2023/06/21 00:53:59;;;;;;;13.00;9.20;;;29.90;48.80;;;;;;5023194;28;20197;-46
2023/06/21 00:56:24;;;;;;;10.77;8.23;;;30.00;48.80;;;;;;5021665;28;20450;-47
2023/06/21 00:58:50;;;;;;;8.73;7.77;;;29.90;48.80;;;;;;5026782;28;20452;-46
2023/06/21 01:01:15;;;;;;;8.73;8.00;;;29.90;48.80;;;;;;5024574;28;20288;-51
2023/06/21 01:03:41;;;;;;;9.27;8.20;;;30.00;48.60;;;;;;5022613;28;20200;-49
2023/06/21 01:06:16;;;;;;;8.57;7.97;;;30.00;48.40;;;;;;5028458;28;20566;-46
2023/06/21 01:09:08;;;;;;;10.03;8.80;;;30.00;48.40;;;;;;5028594;28;20197;-47
2023/06/21 01:12:02;;;;;;;9.13;8.03;;;30.00;48.40;;;;;;5026098;28;20924;-48
2023/06/21 01:14:48;;;;;;;10.73;8.70;;;30.00;48.40;;;;;;5010367;28;20460;-48
2023/06/21 01:17:15;;;;;;;10.27;8.93;;;30.00;48.40;;;;;;5020389;28;20527;-48
2023/06/21 01:19:53;;;;;;;10.40;8.00;;;29.90;48.50;;;;;;5026123;28;20884;-48
2023/06/21 01:22:24;;;;;;;9.00;8.20;;;29.90;48.70;;;;;;5018646;28;20459;-49
2023/06/21 01:25:32;;;;;;;9.63;8.73;;;29.80;48.70;;;;;;5025713;28;20481;-47
2023/06/21 01:28:33;;;;;;;10.10;8.70;;;29.80;48.70;;;;;;5023893;28;20463;-50
2023/06/21 01:31:01;;;;;;;9.63;8.60;;;29.80;48.70;;;;;;5009606;28;20491;-48
2023/06/21 01:33:28;;;;;;;10.90;9.43;;;29.80;48.70;;;;;;5024805;28;20555;-47
2023/06/21 01:35:54;;;;;;;9.90;8.30;;;29.80;48.60;;;;;;5025245;28;20944;-47
2023/06/21 01:38:21;;;;;;;9.93;8.60;;;29.80;48.70;;;;;;5020267;28;20527;-50
2023/06/21 01:40:46;;;;;;;13.13;9.50;;;29.80;48.60;;;;;;5021612;28;20452;-50
2023/06/21 01:43:16;;;;;;;10.10;9.10;;;29.80;48.70;;;;;;5016376;28;20441;-47
2023/06/21 01:45:42;;;;;;;8.50;7.80;;;29.80;48.70;;;;;;5019370;28;20814;-47
2023/06/21 01:48:08;;;;;;;11.37;8.47;;;29.80;48.70;;;;;;5020470;28;20452;-51
2023/06/21 01:50:36;;;;;;;9.80;9.00;;;29.80;48.70;;;;;;5020585;28;20280;-49
2023/06/21 01:53:02;;;;;;;10.90;9.67;;;29.70;48.70;;;;;;5022336;28;20499;-51
2023/06/21 01:55:29;;;;;;;9.20;8.43;;;29.70;48.70;;;;;;5015524;28;21008;-48
2023/06/21 01:57:56;;;;;;;10.20;9.10;;;29.70;48.70;;;;;;5022783;28;20808;-47
2023/06/21 02:00:22;;;;;;;9.20;8.40;;;29.70;48.80;;;;;;5014553;28;20449;-49
2023/06/21 02:02:55;;;;;;;9.70;8.70;;;29.60;48.90;;;;;;5022201;28;20851;-53
2023/06/21 02:05:21;;;;;;;9.33;8.53;;;29.60;49.00;;;;;;5021726;28;20201;-47
2023/06/21 02:07:48;;;;;;;10.70;9.00;;;29.50;49.20;;;;;;5024485;28;20459;-50
2023/06/21 02:10:15;;;;;;;9.17;8.30;;;29.40;49.30;;;;;;5022685;28;21027;-48
2023/06/21 02:12:42;;;;;;;9.93;9.13;;;29.40;49.40;;;;;;5026369;28;20498;-49
2023/06/21 02:15:10;;;;;;;8.90;8.03;;;29.40;49.40;;;;;;5020959;28;20446;-48
2023/06/21 02:17:36;;;;;;;9.27;8.47;;;29.40;49.40;;;;;;5029183;28;20444;-47
2023/06/21 02:20:03;;;;;;;9.60;8.80;;;29.40;49.30;;;;;;5027091;28;20459;-51
2023/06/21 02:22:28;;;;;;;8.70;7.90;;;29.40;49.30;;;;;;5016281;28;20559;-50
2023/06/21 02:24:55;;;;;;;10.57;9.47;;;29.40;49.30;;;;;;5020789;28;20451;-50
2023/06/21 02:27:21;;;;;;;9.30;8.60;;;29.40;49.30;;;;;;5031616;28;20791;-48
2023/06/21 02:29:46;;;;;;;10.67;9.03;;;29.40;49.30;;;;;;5018925;28;20527;-48
2023/06/21 02:32:12;;;;;;;9.73;8.73;;;29.30;49.50;;;;;;5027094;28;20228;-49
2023/06/21 02:34:38;;;;;;;9.07;8.27;;;29.30;49.50;;;;;;5026255;28;20544;-47
2023/06/21 02:37:04;;;;;;;10.23;9.23;;;29.30;49.30;;;;;;5030289;28;20208;-48
2023/06/21 02:39:29;;;;;;;9.53;8.73;;;29.30;49.30;;;;;;5027103;28;20200;-48
2023/06/21 02:41:55;;;;;;;10.40;9.37;;;29.40;49.30;;;;;;5027512;28;20204;-52
2023/06/21 02:44:20;;;;;;;12.07;9.23;;;29.30;49.30;;;;;;5025976;28;20628;-50
2023/06/21 02:46:46;;;;;;;11.70;10.43;;;29.30;49.40;;;;;;5030289;28;20333;-49
2023/06/21 02:49:11;;;;;;;12.47;11.30;;;29.30;49.40;;;;;;5030817;28;20190;-49
2023/06/21 02:51:37;;;;;;;10.70;9.77;;;29.20;49.40;;;;;;5025044;28;20244;-48
2023/06/21 02:54:03;;;;;;;10.77;9.33;;;29.20;49.50;;;;;;5019040;28;20711;-47
2023/06/21 02:56:32;;;;;;;10.83;9.83;;;29.20;49.70;;;;;;5022308;28;20566;-48
2023/06/21 02:58:58;;;;;;;9.70;8.70;;;29.10;49.70;;;;;;5020756;28;20436;-50
2023/06/21 03:01:23;;;;;;;9.70;8.77;;;29.10;49.60;;;;;;5023520;28;20525;-48
2023/06/21 03:03:49;;;;;;;14.40;12.70;;;29.00;49.90;;;;;;5025468;28;20663;-48
2023/06/21 03:06:15;;;;;;;11.57;9.67;;;29.10;49.90;;;;;;5025750;28;20197;-48
2023/06/21 03:08:41;;;;;;;11.30;10.20;;;29.10;49.80;;;;;;5013151;28;20197;-48
2023/06/21 03:11:08;;;;;;;11.30;9.90;;;29.10;49.70;;;;;;5024041;28;20474;-48
2023/06/21 03:13:37;;;;;;;9.87;8.97;;;29.10;49.70;;;;;;5029309;28;20241;-49
2023/06/21 03:16:04;;;;;;;10.37;9.37;;;29.10;49.70;;;;;;5026226;28;21660;-48
2023/06/21 03:18:30;;;;;;;11.30;9.37;;;29.10;49.70;;;;;;5020949;28;20947;-50
2023/06/21 03:21:00;;;;;;;10.50;8.83;;;29.10;49.70;;;;;;5018408;28;20527;-47
2023/06/21 03:23:27;;;;;;;10.37;9.30;;;29.10;49.60;;;;;;5025053;28;20572;-49
2023/06/21 03:25:53;;;;;;;9.67;8.63;;;29.10;49.50;;;;;;5023001;28;20444;-48
2023/06/21 03:28:18;;;;;;;11.90;9.80;;;29.10;49.50;;;;;;5029507;28;20447;-48
2023/06/21 03:30:44;;;;;;;10.60;9.67;;;29.10;49.50;;;;;;5028414;28;20281;-49
2023/06/21 03:33:10;;;;;;;12.00;9.37;;;29.10;49.60;;;;;;5028790;28;20562;-49
2023/06/21 03:35:36;;;;;;;9.63;8.47;;;29.10;49.50;;;;;;5017871;28;20265;-49
2023/06/21 03:38:02;;;;;;;10.47;9.47;;;29.10;49.50;;;;;;5018662;28;20770;-49
2023/06/21 03:40:28;;;;;;;12.33;9.70;;;28.90;50.00;;;;;;5016060;28;20209;-48
2023/06/21 03:42:53;;;;;;;10.93;9.53;;;28.90;50.00;;;;;;5016767;28;20470;-51
2023/06/21 03:45:19;;;;;;;11.13;10.17;;;28.80;50.40;;;;;;5018066;28;20208;-52
2023/06/21 03:47:45;;;;;;;10.47;9.10;;;28.80;50.20;;;;;;5014562;28;20700;-49
2023/06/21 03:50:13;;;;;;;10.10;9.30;;;28.90;50.30;;;;;;5026244;28;20197;-49
2023/06/21 03:52:40;;;;;;;12.07;10.77;;;28.90;50.40;;;;;;5018597;28;20598;-48
2023/06/21 03:55:07;;;;;;;10.17;9.17;;;28.90;50.30;;;;;;5027099;28;20861;-52
2023/06/21 03:57:32;;;;;;;11.47;10.53;;;28.80;50.40;;;;;;5029459;28;20440;-50
2023/06/21 03:59:58;;;;;;;11.30;10.27;;;28.20;52.00;;;;;;5023526;28;20523;-49
2023/06/21 04:02:24;;;;;;;11.63;10.53;;;27.80;53.20;;;;;;5015282;28;20600;-51
2023/06/21 04:04:50;;;;;;;11.77;10.67;;;27.80;53.50;;;;;;5014777;28;20189;-51
2023/06/21 04:07:19;;;;;;;11.90;10.37;;;27.90;54.00;;;;;;5019987;28;20202;-49
2023/06/21 04:09:45;;;;;;;11.33;10.33;;;27.90;54.10;;;;;;5019687;28;20189;-50
2023/06/21 04:12:11;;;;;;;13.43;11.07;;;27.90;54.50;;;;;;5015732;28;20584;-52
2023/06/21 04:14:36;;;;;;;10.87;9.77;;;28.00;54.50;;;;;;5020484;28;20444;-50
2023/06/21 04:17:02;;;;;;;13.60;11.17;;;27.90;55.00;;;;;;5028817;28;20444;-50
2023/06/21 04:19:28;;;;;;;15.70;10.17;;;27.90;54.90;;;;;;5024904;28;20197;-48
2023/06/21 04:21:54;;;;;;;9.03;8.23;;;28.00;55.00;;;;;;5030006;28;20201;-48
2023/06/21 04:24:19;;;;;;;11.17;9.00;;;28.10;54.60;;;;;;5025297;28;20198;-50
2023/06/21 04:26:45;;;;;;;12.10;9.40;;;28.20;54.10;;;;;;5020342;28;20201;-48
2023/06/21 04:29:10;;;;;;;14.93;9.90;;;28.30;53.90;;;;;;5022836;28;20254;-50
2023/06/21 04:31:37;;;;;;;9.40;8.53;;;28.30;53.80;;;;;;5027603;28;20217;-49
2023/06/21 04:34:04;;;;;;;9.17;8.30;;;28.40;53.30;;;;;;5027207;28;20240;-49
2023/06/21 04:36:30;;;;;;;10.83;8.87;;;28.40;53.40;;;;;;5031232;28;20502;-49
2023/06/21 04:38:55;;;;;;;9.80;9.00;;;28.50;53.30;;;;;;5014899;28;22303;-49
2023/06/21 04:41:21;;;;;;;10.40;9.40;;;28.60;53.40;;;;;;5020987;28;20557;-49
2023/06/21 04:43:47;;;;;;;9.00;8.10;;;28.60;53.70;;;;;;5022217;28;20243;-48
2023/06/21 04:46:13;;;;;;;12.50;8.50;;;28.60;53.80;;;;;;5029951;28;20440;-51
2023/06/21 04:48:39;;;;;;;9.83;8.10;;;28.70;53.50;;;;;;5026636;28;20531;-50
2023/06/21 04:51:05;;;;;;;9.50;8.17;;;28.70;53.40;;;;;;5022242;28;20328;-49
2023/06/21 04:53:32;;;;;;;9.10;8.00;;;28.70;53.50;;;;;;5016299;28;20516;-49
2023/06/21 04:55:57;;;;;;;8.13;7.27;;;28.70;53.10;;;;;;5025707;28;20197;-49
2023/06/21 04:58:24;;;;;;;12.33;8.70;;;28.80;53.20;;;;;;5021790;28;20436;-52
2023/06/21 05:00:50;;;;;;;9.13;8.23;;;28.80;53.00;;;;;;5016863;28;20229;-50
2023/06/21 05:03:15;;;;;;;10.13;9.10;;;28.80;53.00;;;;;;5023203;28;20529;-48
2023/06/21 05:05:41;;;;;;;9.80;8.87;;;28.80;53.20;;;;;;5025370;28;20197;-49
2023/06/21 05:08:07;;;;;;;10.67;9.53;;;28.80;53.00;;;;;;5027124;28;20215;-53
2023/06/21 05:10:34;;;;;;;9.20;8.40;;;28.80;53.20;;;;;;5019362;28;20198;-48
2023/06/21 05:12:59;;;;;;;8.73;7.87;;;28.80;53.20;;;;;;5015067;28;20299;-53
2023/06/21 05:15:25;;;;;;;9.37;8.47;;;28.90;52.90;;;;;;5018191;28;20864;-50
2023/06/21 05:17:51;;;;;;;10.47;8.87;;;28.90;53.00;;;;;;5018595;28;20561;-51
2023/06/21 05:20:19;;;;;;;8.67;7.80;;;28.90;52.80;;;;;;5019849;28;20444;-49
2023/06/21 05:22:44;;;;;;;9.00;8.20;;;29.00;53.20;;;;;;5019825;28;20251;-51
2023/06/21 05:25:10;;;;;;;11.37;9.60;;;29.00;53.40;;;;;;5022250;28;20440;-50
2023/06/21 05:27:36;;;;;;;9.60;8.23;;;28.80;54.10;;;;;;5030679;28;20193;-49
2023/06/21 05:30:01;;;;;;;10.33;9.20;;;28.80;53.90;;;;;;5029829;28;20254;-48
2023/06/21 05:32:27;;;;;;;9.63;8.60;;;28.80;53.70;;;;;;5028334;28;20695;-49
2023/06/21 05:34:53;;;;;;;8.70;7.93;;;28.80;53.80;;;;;;5016841;28;20664;-51
2023/06/21 05:37:19;;;;;;;10.20;9.30;;;28.90;53.50;;;;;;5021935;28;20201;-52
2023/06/21 05:39:45;;;;;;;11.10;10.03;;;28.90;53.40;;;;;;5030434;28;20503;-50
2023/06/21 05:42:11;;;;;;;9.77;8.00;;;28.80;53.80;;;;;;5034054;28;20911;-51
2023/06/21 05:44:37;;;;;;;12.70;7.93;;;28.90;53.60;;;;;;5031849;28;20566;-49
2023/06/21 05:47:03;;;;;;;9.23;8.47;;;28.80;53.70;;;;;;5032327;28;20443;-50
2023/06/21 05:49:29;;;;;;;17.33;10.00;;;28.80;53.50;;;;;;5028569;28;20525;-49
2023/06/21 05:51:55;;;;;;;13.07;10.03;;;28.80;53.40;;;;;;5033916;28;20586;-48
2023/06/21 05:54:20;;;;;;;12.00;9.10;;;28.40;54.90;;;;;;5028036;28;20196;-52
2023/06/21 05:56:46;;;;;;;9.50;8.70;;;28.40;54.60;;;;;;5029797;28;20198;-48
2023/06/21 05:59:11;;;;;;;9.90;8.73;;;28.30;55.00;;;;;;5024941;28;20566;-55
2023/06/21 06:01:37;;;;;;;9.53;8.63;;;28.50;54.50;;;;;;5029085;28;20196;-51
2023/06/21 06:04:03;;;;;;;10.23;8.10;;;28.60;54.20;;;;;;5026924;28;20193;-54
2023/06/21 06:06:38;;;;;;;11.27;10.20;;;28.80;53.80;;;;;;5021760;28;20279;-48
2023/06/21 06:09:05;;;;;;;9.60;8.70;;;28.90;53.80;;;;;;5026681;28;20243;-51
2023/06/21 06:11:30;;;;;;;11.53;10.43;;;29.00;53.80;;;;;;5031022;28;20538;-51
2023/06/21 06:13:56;;;;;;;10.20;9.20;;;29.00;53.80;;;;;;5033260;28;20455;-48
2023/06/21 06:16:21;;;;;;;10.57;9.53;;;29.00;53.60;;;;;;5025705;28;20196;-50
2023/06/21 06:18:47;;;;;;;10.20;9.20;;;29.10;53.70;;;;;;5023315;28;20217;-49
2023/06/21 06:21:14;;;;;;;11.37;8.97;;;29.10;53.70;;;;;;5028208;28;20296;-49
2023/06/21 06:23:40;;;;;;;11.57;10.57;;;28.80;54.30;;;;;;5028886;28;20210;-49
2023/06/21 06:26:06;;;;;;;10.20;9.20;;;28.70;54.50;;;;;;5021880;28;20452;-50
2023/06/21 06:28:31;;;;;;;10.40;9.50;;;28.60;54.70;;;;;;5027723;28;20254;-49
2023/06/21 06:30:57;;;;;;;10.57;9.47;;;28.70;54.60;;;;;;5028678;28;20201;-55
2023/06/21 06:33:22;;;;;;;10.60;9.73;;;28.80;54.10;;;;;;5019231;28;20213;-53
2023/06/21 06:35:48;;;;;;;10.83;9.77;;;29.00;53.80;;;;;;5018609;28;20250;-51
2023/06/21 06:38:13;;;;;;;12.00;10.70;;;29.00;53.40;;;;;;5018856;28;20201;-50
2023/06/21 06:40:39;;;;;;;10.93;10.03;;;29.10;53.10;;;;;;5015059;28;20202;-48
2023/06/21 06:43:06;;;;;;;10.07;9.07;;;29.00;52.40;;;;;;5024592;28;20680;-47
2023/06/21 06:45:31;;;;;;;10.67;9.57;;;28.60;53.20;;;;;;5026395;28;20208;-48
2023/06/21 06:47:57;;;;;;;8.97;8.07;;;28.10;54.50;;;;;;5026334;28;20546;-47
2023/06/21 06:50:23;;;;;;;9.83;8.80;;;27.70;55.40;;;;;;5027236;28;20197;-48
2023/06/21 06:52:49;;;;;;;8.73;7.93;;;27.50;56.50;;;;;;5025798;28;21285;-51
2023/06/21 06:55:15;;;;;;;9.90;8.80;;;27.70;56.00;;;;;;5028535;28;20284;-49
2023/06/21 06:57:40;;;;;;;10.17;8.33;;;28.00;55.50;;;;;;5022037;28;20197;-48
2023/06/21 07:00:12;;;;;;;10.87;8.87;;;28.10;54.60;;;;;;5012578;28;20189;-50
2023/06/21 07:02:37;;;;;;;12.43;9.07;;;28.50;54.10;;;;;;5025445;28;20701;-52
2023/06/21 07:05:03;;;;;;;9.00;8.30;;;28.80;53.50;;;;;;5020047;28;20527;-48
2023/06/21 07:07:29;;;;;;;8.53;7.73;;;29.00;52.50;;;;;;5025107;28;20193;-50
2023/06/21 07:09:54;;;;;;;9.00;8.20;;;29.10;51.80;;;;;;5022850;28;20440;-48
2023/06/21 07:12:20;;;;;;;10.70;8.87;;;29.20;51.40;;;;;;5021050;28;20248;-50
2023/06/21 07:14:45;;;;;;;10.30;8.30;;;29.40;51.30;;;;;;5023187;28;20201;-51
2023/06/21 07:17:11;;;;;;;7.93;7.23;;;29.60;51.70;;;;;;5017118;28;20636;-49
2023/06/21 07:19:38;;;;;;;9.83;8.10;;;29.70;50.90;;;;;;5018148;28;20199;-52
2023/06/21 07:22:04;;;;;;;9.20;7.90;;;29.80;50.40;;;;;;5021487;28;20648;-49
2023/06/21 07:24:29;;;;;;;7.50;6.80;;;29.90;50.00;;;;;;5012959;28;20441;-49
2023/06/21 07:26:55;;;;;;;10.73;8.33;;;30.00;49.20;;;;;;5025334;28;20206;-51
2023/06/21 07:29:21;;;;;;;8.93;7.40;;;30.10;48.90;;;;;;5025011;28;20208;-52
2023/06/21 07:31:47;;;;;;;11.60;8.60;;;30.10;48.80;;;;;;5031510;28;20224;-50
2023/06/21 07:34:13;;;;;;;16.57;8.60;;;30.30;49.00;;;;;;5031060;28;20323;-53
2023/06/21 07:36:39;;;;;;;10.87;8.37;;;30.40;49.10;;;;;;5022857;28;20448;-49
2023/06/21 07:39:05;;;;;;;10.87;7.70;;;30.40;49.10;;;;;;5021536;28;20197;-48
2023/06/21 07:41:30;;;;;;;9.47;8.53;;;30.40;48.70;;;;;;5030925;28;20440;-54
2023/06/21 07:43:56;;;;;;;7.73;7.03;;;30.30;48.80;;;;;;5028222;28;20197;-51
2023/06/21 07:46:21;;;;;;;9.03;8.00;;;30.30;48.90;;;;;;5018891;28;20248;-48
2023/06/21 07:48:47;;;;;;;7.20;6.50;;;30.40;48.20;;;;;;5020838;28;20240;-49
2023/06/21 07:51:12;;;;;;;7.87;7.17;;;30.40;48.70;;;;;;5029296;28;20213;-51
2023/06/21 07:53:38;;;;;;;8.80;7.73;;;30.50;48.20;;;;;;5030477;28;20700;-50
2023/06/21 07:56:04;;;;;;;9.00;8.07;;;30.70;48.30;;;;;;5029749;28;20243;-49
2023/06/21 07:58:29;;;;;;;9.57;8.00;;;30.80;48.20;;;;;;5015855;28;20198;-48
2023/06/21 08:00:55;;;;;;;8.10;7.30;;;30.80;48.00;;;;;;5024456;28;20212;-50
2023/06/21 08:03:20;;;;;;;8.77;7.43;;;30.90;47.70;;;;;;5030673;28;20197;-51
2023/06/21 08:05:46;;;;;;;9.27;8.37;;;31.00;48.30;;;;;;5031120;28;20644;-50
2023/06/21 08:08:12;;;;;;;10.60;9.03;;;31.10;47.80;;;;;;5029812;28;20249;-50
2023/06/21 08:10:37;;;;;;;8.93;8.13;;;31.20;48.70;;;;;;5018167;28;20228;-51
2023/06/21 08:13:03;;;;;;;9.93;8.00;;;31.10;49.40;;;;;;5019602;28;20256;-53
2023/06/21 08:15:28;;;;;;;11.13;8.80;;;31.10;49.80;;;;;;5015806;28;20221;-53
2023/06/21 08:17:54;;;;;;;10.80;9.80;;;31.10;50.40;;;;;;5015860;28;20565;-54
2023/06/21 08:20:19;;;;;;;10.50;9.00;;;31.10;49.30;;;;;;5017505;28;20202;-52
2023/06/21 08:22:45;;;;;;;10.57;9.57;;;31.00;49.70;;;;;;5023649;28;20207;-54
2023/06/21 08:25:11;;;;;;;12.60;9.47;;;31.20;49.80;;;;;;5019975;28;20223;-50
2023/06/21 08:27:36;;;;;;;9.63;8.73;;;31.30;49.30;;;;;;5018741;28;20209;-56
2023/06/21 08:30:02;;;;;;;9.23;8.43;;;31.40;47.90;;;;;;5023407;28;20197;-49
2023/06/21 08:32:28;;;;;;;9.47;8.67;;;31.50;48.40;;;;;;5016345;28;20225;-54
2023/06/21 08:34:53;;;;;;;8.53;7.57;;;31.50;48.20;;;;;;5022046;28;20205;-50
2023/06/21 08:37:24;;;;;;;9.17;7.47;;;31.50;47.90;;;;;;5020859;28;20251;-52
2023/06/21 08:39:53;;;;;;;8.20;7.50;;;31.40;47.40;;;;;;5027101;28;20580;-55
2023/06/21 08:42:19;;;;;;;10.07;8.33;;;31.30;47.20;;;;;;5013196;28;20937;-51
2023/06/21 08:44:46;;;;;;;8.20;7.40;;;31.20;47.50;;;;;;5023256;28;20452;-50
2023/06/21 08:47:14;;;;;;;7.57;6.70;;;31.10;47.70;;;;;;5022978;28;22726;-49
2023/06/21 08:49:43;;;;;;;6.07;5.50;;;31.10;47.70;;;;;;5022383;28;20495;-55
2023/06/21 08:52:13;;;;;;;7.23;5.57;;;30.90;47.50;;;;;;5027256;28;20526;-48
2023/06/21 08:54:45;;;;;;;11.37;5.83;;;30.80;47.40;;;;;;5028994;28;20523;-50
2023/06/21 08:57:21;;;;;;;8.20;5.40;;;30.70;47.60;;;;;;5023829;28;20472;-49
2023/06/21 08:59:54;;;;;;;7.13;4.70;;;30.50;47.70;;;;;;5028387;28;20957;-50
2023/06/21 09:02:44;;;;;;;4.07;3.70;;;30.40;48.00;;;;;;5022104;28;20495;-50
2023/06/21 09:05:15;;;;;;;4.20;3.80;;;30.40;48.10;;;;;;5025938;28;20546;-49
2023/06/21 09:07:42;;;;;;;3.90;3.60;;;30.30;47.90;;;;;;5029987;28;20937;-50
2023/06/21 09:10:08;;;;;;;4.33;3.93;;;30.30;47.80;;;;;;5026186;28;20515;-50
2023/06/21 09:12:35;;;;;;;3.70;3.40;;;30.30;47.80;;;;;;5016709;28;20512;-50
2023/06/21 09:15:02;;;;;;;3.33;3.07;;;30.10;48.40;;;;;;5023866;28;20469;-52
2023/06/21 09:17:28;;;;;;;5.43;3.80;;;29.80;49.80;;;;;;5027235;28;20835;-53
2023/06/21 09:19:54;;;;;;;9.43;4.90;;;29.80;50.50;;;;;;5025993;28;20436;-49
2023/06/21 09:22:24;;;;;;;5.50;4.57;;;29.80;51.30;;;;;;5027694;28;20193;-55
2023/06/21 09:24:50;;;;;;;4.43;3.80;;;29.80;51.70;;;;;;5021901;28;20255;-53
2023/06/21 09:27:16;;;;;;;4.77;4.10;;;29.80;52.30;;;;;;5023994;28;20447;-54
2023/06/21 09:29:41;;;;;;;7.67;4.30;;;29.80;52.90;;;;;;5023882;28;20498;-50
2023/06/21 09:32:07;;;;;;;8.23;5.63;;;29.70;53.20;;;;;;5024667;28;20233;-52
2023/06/21 09:34:33;;;;;;;8.20;5.40;;;29.70;54.10;;;;;;5024140;28;20649;-53
2023/06/21 09:36:59;;;;;;;4.90;4.40;;;29.70;54.90;;;;;;5028667;28;20216;-61
2023/06/21 09:39:25;;;;;;;5.60;4.60;;;29.60;55.30;;;;;;5025313;28;20239;-54
2023/06/21 09:41:52;;;;;;;4.80;4.40;;;29.50;55.50;;;;;;5017840;28;20444;-52
2023/06/21 09:44:21;;;;;;;5.37;4.90;;;29.40;55.70;;;;;;5015830;28;20467;-53
2023/06/21 09:46:48;;;;;;;5.93;4.40;;;29.30;55.60;;;;;;5025463;28;20436;-55
2023/06/21 09:49:15;;;;;;;6.23;5.47;;;29.20;55.40;;;;;;5027276;28;20440;-53
2023/06/21 09:51:43;;;;;;;7.90;6.07;;;29.10;56.00;;;;;;5014647;28;21030;-51
2023/06/21 09:54:08;;;;;;;5.60;5.03;;;29.10;56.70;;;;;;5023631;28;20935;-50
2023/06/21 09:56:35;;;;;;;6.57;4.83;;;29.00;57.50;;;;;;5024824;28;20440;-53
2023/06/21 09:59:02;;;;;;;12.10;6.07;;;28.60;57.70;;;;;;5016179;28;20196;-54
2023/06/21 10:01:57;;;;;;;6.80;5.00;;;28.30;58.40;;;;;;5017982;28;20448;-54
2023/06/21 10:04:23;;;;;;;14.83;5.57;;;28.20;59.30;;;;;;5009380;28;20931;-54
2023/06/21 10:06:50;;;;;;;6.40;5.13;;;28.20;59.50;;;;;;5022213;28;20509;-52
2023/06/21 10:09:17;;;;;;;7.13;4.93;;;28.20;59.60;;;;;;5015695;28;20539;-49
2023/06/21 10:11:47;;;;;;;7.50;5.10;;;28.20;60.00;;;;;;5021807;28;20510;-51
2023/06/21 10:14:21;;;;;;;6.63;5.60;;;28.20;59.90;;;;;;5019757;28;20485;-52
2023/06/21 10:16:52;;;;;;;5.73;5.10;;;28.10;59.60;;;;;;5027978;28;20939;-50
2023/06/21 10:19:22;;;;;;;6.77;5.50;;;28.10;60.50;;;;;;5019488;28;20471;-51
2023/06/21 10:21:57;;;;;;;7.73;5.50;;;28.10;61.60;;;;;;5025162;28;20440;-51
2023/06/21 10:24:25;;;;;;;8.13;5.50;;;28.00;61.20;;;;;;5023983;28;20443;-50
2023/06/21 10:26:53;;;;;;;6.47;5.53;;;27.90;61.60;;;;;;5023511;28;20505;-53
2023/06/21 10:29:20;;;;;;;7.70;5.33;;;27.80;61.00;;;;;;5019063;28;20514;-50
2023/06/21 10:31:49;;;;;;;10.70;5.50;;;27.70;61.40;;;;;;5018660;28;20526;-53
2023/06/21 10:34:20;;;;;;;7.60;5.47;;;27.70;61.80;;;;;;5026208;28;20444;-50
2023/06/21 10:36:51;;;;;;;6.97;6.10;;;27.70;61.60;;;;;;5023624;28;20881;-49
2023/06/21 10:39:17;;;;;;;7.73;5.30;;;27.70;61.90;;;;;;5022880;28;20442;-52
2023/06/21 10:41:44;;;;;;;8.33;6.13;;;27.70;61.90;;;;;;5028434;28;20531;-51
2023/06/21 10:44:10;;;;;;;6.43;5.70;;;27.80;61.50;;;;;;5024432;28;20450;-50
2023/06/21 10:46:41;;;;;;;6.73;5.70;;;27.80;62.00;;;;;;5021805;28;20474;-50
2023/06/21 10:49:07;;;;;;;7.40;5.57;;;27.80;62.20;;;;;;5019947;28;20444;-51
2023/06/21 10:51:34;;;;;;;11.73;6.33;;;27.80;61.90;;;;;;5027524;28;20483;-49
2023/06/21 10:54:00;;;;;;;7.83;7.03;;;27.90;62.20;;;;;;5020251;28;20476;-54
2023/06/21 10:56:27;;;;;;;11.13;7.70;;;27.90;62.60;;;;;;5026161;28;20982;-52
2023/06/21 10:58:53;;;;;;;8.87;6.27;;;27.90;63.70;;;;;;5024566;28;20472;-53
2023/06/21 11:01:21;;;;;;;8.17;7.20;;;28.00;64.60;;;;;;5031193;28;20472;-50
2023/06/21 11:03:47;;;;;;;8.60;7.70;;;28.00;64.60;;;;;;5022864;28;20197;-52
2023/06/21 11:06:29;;;;;;;13.30;8.73;;;28.00;65.20;;;;;;5028210;28;20978;-51
2023/06/21 11:08:56;;;;;;;11.57;10.30;;;27.90;66.10;;;;;;5026136;28;21132;-51
2023/06/21 11:11:29;;;;;;;13.73;11.77;;;27.90;66.50;;;;;;5021037;28;20471;-54
2023/06/21 11:13:56;;;;;;;14.73;13.47;;;27.80;66.60;;;;;;5018443;28;20486;-51
2023/06/21 11:16:25;;;;;;;14.30;11.97;;;27.70;66.60;;;;;;5016326;28;20820;-52
2023/06/21 11:19:00;;;;;;;16.23;13.67;;;27.50;67.60;;;;;;5019151;28;20560;-50
2023/06/21 11:21:46;;;;;;;14.50;12.87;;;27.40;68.20;;;;;;5015243;28;20452;-49
2023/06/21 11:24:17;;;;;;;20.80;14.60;;;27.30;71.30;;;;;;5025326;28;20454;-51
2023/06/21 11:26:56;;;;;;;15.13;13.10;;;27.20;69.90;;;;;;5024932;28;20451;-51
2023/06/21 11:29:22;;;;;;;14.70;13.40;;;27.10;71.50;;;;;;5026528;28;20545;-50
2023/06/21 11:31:48;;;;;;;15.50;14.00;;;27.30;70.90;;;;;;5024625;28;20553;-53
2023/06/21 11:34:29;;;;;;;14.77;13.27;;;27.60;68.50;;;;;;5025030;28;20193;-50
2023/06/21 11:36:55;;;;;;;15.33;12.70;;;27.60;68.20;;;;;;5025343;28;20580;-52
2023/06/21 11:39:20;;;;;;;14.43;12.93;;;27.70;68.10;;;;;;5025391;28;20440;-52
2023/06/21 11:41:47;;;;;;;13.17;12.07;;;27.80;68.20;;;;;;5023518;28;20197;-55
2023/06/21 11:44:28;;;;;;;15.00;13.50;;;28.00;66.50;;;;;;5022540;28;20280;-51
2023/06/21 11:47:23;;;;;;;14.87;13.37;;;28.20;66.90;;;;;;5020974;28;20820;-49
2023/06/21 11:49:57;;;;;;;13.70;12.50;;;28.40;67.90;;;;;;5021499;28;20471;-48
2023/06/21 11:52:30;;;;;;;14.00;12.57;;;28.60;66.00;;;;;;5018656;28;21073;-51
2023/06/21 11:54:59;;;;;;;14.83;13.57;;;28.70;64.70;;;;;;5020553;28;20531;-49
2023/06/21 11:57:25;;;;;;;15.37;13.90;;;28.80;65.30;;;;;;5024695;28;20451;-48
2023/06/21 11:59:51;;;;;;;14.90;13.40;;;28.80;66.90;;;;;;5025214;28;20447;-48
2023/06/21 12:02:20;;;;;;;14.23;12.83;;;29.00;68.00;;;;;;5025393;28;20285;-50
2023/06/21 12:04:48;;;;;;;14.50;13.20;;;29.00;63.80;;;;;;5019366;28;20204;-49
2023/06/21 12:07:15;;;;;;;15.47;13.90;;;28.90;62.60;;;;;;5024399;28;20446;-51
2023/06/21 12:09:47;;;;;;;13.93;12.60;;;29.10;61.80;;;;;;5021766;28;20444;-52
2023/06/21 12:12:13;;;;;;;14.03;12.33;;;29.30;61.60;;;;;;5020096;28;21025;-55
2023/06/21 12:14:39;;;;;;;13.43;12.03;;;29.70;60.70;;;;;;5025697;28;20452;-53
2023/06/21 12:17:05;;;;;;;12.37;11.23;;;29.90;58.40;;;;;;5027276;28;20557;-55
2023/06/21 12:19:32;;;;;;;12.20;10.93;;;30.10;57.40;;;;;;5025430;28;20201;-54
2023/06/21 12:22:01;;;;;;;13.07;11.80;;;30.40;57.10;;;;;;5027072;28;20451;-52
2023/06/21 12:24:27;;;;;;;14.43;13.20;;;30.70;55.40;;;;;;5020545;28;20440;-52
2023/06/21 12:26:55;;;;;;;12.37;11.37;;;30.40;53.10;;;;;;5020382;28;20440;-49
2023/06/21 12:29:20;;;;;;;13.50;12.30;;;30.40;54.80;;;;;;5024412;28;20448;-52
2023/06/21 12:31:46;;;;;;;14.20;12.73;;;30.70;54.20;;;;;;5026949;28;20486;-54
2023/06/21 12:34:18;;;;;;;14.83;13.30;;;30.90;54.10;;;;;;5020928;28;20213;-52
2023/06/21 12:36:45;;;;;;;12.77;11.77;;;31.10;54.60;;;;;;5016691;28;20193;-49
2023/06/21 12:39:15;;;;;;;14.57;12.80;;;31.20;52.70;;;;;;5019244;28;20455;-51